Craig G — WDB5332 — position and weather

sailwx.info

Track history (hours):
 
Tides and Currents Weather Stations Pressure Air Temp Water Temp Dewpoint Dewpoint Depression Visibility Wind Speed Wind Dir Waves Ship Positions

Craig G

Owner: San Diego Towing & Marine Services,Inc., San Diego, CA. More information available from US FCC via Universal Licensing System and Coast Guard Vessel Documentation Center.

Last reported at 2015-Aug-29 12:32 UTC. Time now 2015-Aug-29 12:40 UTC.
Position N 32°42' W 117°09'.

Length 31 m; draft 2 m.

Type: Ship. MMSI: 366908460.

Date/timePositionNaut miles runAvg speedWind from/ knotsBaromVisibWave heightAir tempDewpointWater temp
2015-Aug-29 12:32N 32°42' W 117°09'1 0.1
2015-Aug-29 02:32N 32°41' W 117°08'7 6.8
2015-Aug-29 01:33N 32°36' W 117°13'7 3.3
2015-Aug-28 23:33N 32°42' W 117°09'0 0.1
2015-Aug-28 22:13N 32°42' W 117°09'0 0.0
2015-Aug-28 21:26N 32°42' W 117°09'0 0.0
2015-Aug-28 20:18N 32°42' W 117°09'0 0.0
2015-Aug-28 19:27N 32°42' W 117°09'0 0.0
2015-Aug-28 16:20N 32°42' W 117°09'0 0.0
2015-Aug-27 19:24N 32°42' W 117°09'4 0.1
2015-Aug-26 18:33N 32°42' W 117°13'6 6.0
2015-Aug-26 17:30N 32°42' W 117°21'2 2.3
2015-Aug-26 16:33N 32°43' W 117°19'2 2.0
2015-Aug-26 15:33N 32°42' W 117°18'4 4.5
2015-Aug-26 14:33N 32°39' W 117°14'  
Track history (hours):
 
Tides and Currents Weather Stations Pressure Air Temp Water Temp Dewpoint Dewpoint Depression Visibility Wind Speed Wind Dir Waves Ship Positions

Craig G

Owner: San Diego Towing & Marine Services,Inc., San Diego, CA. More information available from US FCC via Universal Licensing System and Coast Guard Vessel Documentation Center.

Last reported at 2015-Aug-29 12:32 UTC. Time now 2015-Aug-29 12:40 UTC.
Position N 32°42' W 117°09'.

Length 31 m; draft 2 m.

Type: Ship. MMSI: 366908460.

Date/timePositionNaut miles runAvg speedWind from/ knotsBaromVisibWave heightAir tempDewpointWater temp
2015-Aug-29 12:32N 32°42' W 117°09'1 0.1
2015-Aug-29 02:32N 32°41' W 117°08'7 6.8
2015-Aug-29 01:33N 32°36' W 117°13'7 3.3
2015-Aug-28 23:33N 32°42' W 117°09'0 0.1
2015-Aug-28 22:13N 32°42' W 117°09'0 0.0
2015-Aug-28 21:26N 32°42' W 117°09'0 0.0
2015-Aug-28 20:18N 32°42' W 117°09'0 0.0
2015-Aug-28 19:27N 32°42' W 117°09'0 0.0
2015-Aug-28 16:20N 32°42' W 117°09'0 0.0
2015-Aug-27 19:24N 32°42' W 117°09'4 0.1
2015-Aug-26 18:33N 32°42' W 117°13'6 6.0
2015-Aug-26 17:30N 32°42' W 117°21'2 2.3
2015-Aug-26 16:33N 32°43' W 117°19'2 2.0
2015-Aug-26 15:33N 32°42' W 117°18'4 4.5
2015-Aug-26 14:33N 32°39' W 117°14'  

Dump ship's entire track history